Weather History for Stafford, VA

Change the Weather History Date:

Sunday, September 22, 2013

  Actual Average (KNYG) Record (KNYG)
Temperature  
Mean Temperature 64 °F -  
Max Temperature 73 °F 73 °F 89 °F (2010)
Min Temperature 56 °F 56 °F 46 °F (1997)
Growing Degree Days 14 (Base 50)    
Moisture  
Dew Point 57 °F    
Average Humidity 79    
Maximum Humidity 100    
Minimum Humidity 45    
Precipitation  
Precipitation 0.00 in - - ()
Sea Level Pressure  
Sea Level Pressure 29.88 in    
Wind  
Wind Speed 4 mph (NNW)    
Max Wind Speed 13 mph    
Max Gust Speed 18 mph    
Visibility 9 miles    
Events Fog    
Averages and records for this station are not official NWS values.
T = Trace of Precipitation, MM = Missing Value Source: NWS Daily Summary

Daily Weather History Graph

Daily Weather History Graph

Search for Another Location

Airport:

Trip Planner

Search our weather history database for the weather conditions in past years. The results will help you decide how hot, cold, wet, or windy it might be!

Date:

Astronomy

Sep. 22, 2013 Rise Set
Actual Time 6:57 AM EDT 7:06 PM EDT
Civil Twilight 6:31 AM EDT 7:32 PM EDT
Nautical Twilight 6:00 AM EDT 8:03 PM EDT
Astronomical Twilight 5:29 AM EDT 8:34 PM EDT
Moon 8:58 PM EDT (9/22) 10:12 AM EDT (9/22)
Length of Visible Light 13h 01m
Length of Day
12h 08m
Waning Gibbous, 89% of the Moon is Illuminated
Sep 22
Waning Gibbous
Sep 26
Last Quarter
Oct 4
New
Oct 11
First Quarter
Oct 18
Full

Hourly Weather History & Observations

Time (EDT) Temp. Dew Point Humidity Pressure Visibility Wind Dir Wind Speed Gust Speed Precip Events Conditions
12:15 AM 63.7 °F 63.7 °F 100% 29.79 in 10.0 mi Calm Calm - N/A   Overcast
12:35 AM 63.5 °F 63.5 °F 100% 29.79 in 10.0 mi Calm Calm - N/A   Overcast
12:55 AM 63.5 °F 63.5 °F 100% 29.79 in 10.0 mi Calm Calm - N/A   Overcast
1:15 AM 63.3 °F 63.3 °F 100% 29.79 in 10.0 mi Calm Calm - N/A   Overcast
1:35 AM 63.1 °F 63.1 °F 100% 29.79 in 10.0 mi Calm Calm - N/A   Overcast
1:55 AM 63.0 °F 63.0 °F 100% 29.79 in 10.0 mi Calm Calm - N/A   Overcast
2:15 AM 63.0 °F 63.0 °F 100% 29.80 in 2.0 mi Calm Calm - N/A   Overcast
2:35 AM 63.0 °F 63.0 °F 100% 29.80 in 10.0 mi Calm Calm - N/A   Overcast
2:55 AM 63.0 °F 63.0 °F 100% 29.80 in 10.0 mi Calm Calm - N/A   Overcast
3:15 AM 62.1 °F 62.1 °F 100% 29.80 in 2.5 mi Calm Calm - N/A   Mostly Cloudy
3:35 AM 60.6 °F 60.6 °F 100% 29.80 in 0.2 mi Calm Calm - N/A Fog Fog
3:55 AM 59.5 °F 59.5 °F 100% 29.81 in 3.0 mi Calm Calm - N/A   Clear
4:15 AM 59.0 °F 59.0 °F 100% 29.81 in 0.8 mi Calm Calm - N/A   Mist
4:35 AM 57.7 °F 57.7 °F 100% 29.81 in 1.0 mi Calm Calm - N/A   Mist
4:55 AM 57.6 °F 57.6 °F 100% 29.82 in 10.0 mi WNW 3.5 mph - N/A   Clear
5:15 AM 57.7 °F 57.7 °F 100% 29.81 in 10.0 mi NW 8.1 mph - N/A   Clear
5:35 AM 58.6 °F 58.6 °F 100% 29.82 in 10.0 mi NW 9.2 mph - N/A   Clear
5:55 AM 58.5 °F 58.5 °F 100% 29.83 in 10.0 mi NW 8.1 mph - N/A   Clear
6:15 AM 57.6 °F 57.6 °F 100% 29.83 in 10.0 mi NW 6.9 mph - N/A   Clear
6:35 AM 57.2 °F 57.2 °F 100% 29.84 in 10.0 mi NW 5.8 mph - N/A   Clear
6:55 AM 56.5 °F 56.5 °F 100% 29.84 in 10.0 mi NW 4.6 mph - N/A   Clear
7:15 AM 56.3 °F 56.3 °F 100% 29.85 in 10.0 mi NW 4.6 mph - N/A   Clear
7:35 AM 56.8 °F 56.8 °F 100% 29.86 in 10.0 mi NNW 3.5 mph - N/A   Clear
7:55 AM 58.3 °F 58.3 °F 100% 29.87 in 10.0 mi NW 3.5 mph - N/A   Clear
8:15 AM 60.6 °F 60.6 °F 100% 29.87 in 10.0 mi NNW 4.6 mph - N/A   Clear
8:35 AM 61.9 °F 61.7 °F 99% 29.88 in 10.0 mi NNW 4.6 mph - N/A   Clear
8:55 AM 63.1 °F 61.7 °F 95% 29.88 in 10.0 mi North 5.8 mph - N/A   Clear
9:15 AM 63.9 °F 61.2 °F 91% 29.89 in 10.0 mi NNW 10.4 mph - N/A   Clear
9:35 AM 65.1 °F 61.0 °F 86% 29.89 in 10.0 mi North 8.1 mph - N/A   Clear
9:55 AM 66.0 °F 58.5 °F 77% 29.90 in 10.0 mi NNW 12.7 mph 16.1 mph N/A   Clear
10:15 AM 66.4 °F 57.9 °F 74% 29.91 in 10.0 mi North 8.1 mph 18.4 mph N/A   Clear
10:35 AM 67.1 °F 56.7 °F 69% 29.90 in 10.0 mi North 12.7 mph 17.3 mph N/A   Clear
10:55 AM 68.2 °F 56.8 °F 67% 29.90 in 10.0 mi NNW 9.2 mph - N/A   Clear
11:15 AM 69.4 °F 57.0 °F 65% 29.90 in 10.0 mi NNW 10.4 mph - N/A   Clear
11:35 AM 70.3 °F 56.8 °F 62% 29.89 in 10.0 mi North 6.9 mph - N/A   Clear
11:55 AM 70.9 °F 55.4 °F 58% 29.89 in 10.0 mi North 11.5 mph - N/A   Clear
12:15 PM 71.6 °F 54.9 °F 55% 29.89 in 10.0 mi North 6.9 mph 10.4 mph N/A   Clear
12:35 PM 71.8 °F 54.5 °F 54% 29.89 in 10.0 mi North 10.4 mph - N/A   Clear
12:55 PM 72.9 °F 54.5 °F 52% 29.89 in 10.0 mi North 11.5 mph - N/A   Scattered Clouds
1:15 PM 71.2 °F 53.6 °F 54% 29.89 in 10.0 mi NNW 10.4 mph - N/A   Mostly Cloudy
1:35 PM 71.8 °F 54.0 °F 53% 29.89 in 10.0 mi NW 11.5 mph - N/A   Mostly Cloudy
1:55 PM 73.4 °F 54.0 °F 50% 29.88 in 10.0 mi NNW 9.2 mph - N/A   Mostly Cloudy
2:15 PM 72.3 °F 53.2 °F 51% 29.88 in 10.0 mi North 10.4 mph - N/A   Mostly Cloudy
2:35 PM 71.2 °F 53.2 °F 53% 29.88 in 10.0 mi NNW 4.6 mph - N/A   Scattered Clouds
2:55 PM 71.1 °F 52.7 °F 52% 29.88 in 10.0 mi North 9.2 mph - N/A   Mostly Cloudy
3:15 PM 71.6 °F 54.0 °F 54% 29.87 in 10.0 mi North 10.4 mph - N/A   Overcast
3:35 PM 72.5 °F 54.0 °F 52% 29.87 in 10.0 mi North 9.2 mph - N/A   Mostly Cloudy
3:55 PM 73.6 °F 54.1 °F 50% 29.87 in 10.0 mi North 6.9 mph - N/A   Overcast
4:15 PM 73.9 °F 53.2 °F 48% 29.87 in 10.0 mi North 9.2 mph - N/A   Mostly Cloudy
4:35 PM 73.8 °F 51.3 °F 45% 29.87 in 10.0 mi NNW 12.7 mph - N/A   Mostly Cloudy
4:55 PM 73.4 °F 52.3 °F 48% 29.87 in 10.0 mi North 8.1 mph - N/A   Scattered Clouds
5:15 PM 73.0 °F 52.2 °F 48% 29.88 in 10.0 mi NW 6.9 mph - N/A   Scattered Clouds
5:35 PM 70.3 °F 53.1 °F 54% 29.89 in 10.0 mi NNW 6.9 mph - N/A   Scattered Clouds
5:55 PM 70.9 °F 55.2 °F 58% 29.89 in 10.0 mi Calm Calm - N/A   Clear
6:15 PM 70.0 °F 57.0 °F 63% 29.89 in 10.0 mi Calm Calm - N/A   Clear
6:35 PM 66.9 °F 59.4 °F 77% 29.89 in 10.0 mi Calm Calm - N/A   Clear
6:55 PM 63.3 °F 62.8 °F 98% 29.90 in 10.0 mi Calm Calm - N/A   Clear
7:15 PM 60.8 °F 60.8 °F 100% 29.90 in 10.0 mi Calm Calm - N/A   Scattered Clouds
7:35 PM 59.9 °F 59.9 °F 100% 29.91 in 10.0 mi Calm Calm - N/A   Clear
7:55 PM 59.0 °F 59.0 °F 100% 29.92 in 10.0 mi Calm Calm - N/A   Scattered Clouds
8:15 PM 58.1 °F 58.1 °F 100% 29.92 in 10.0 mi Calm Calm - N/A   Scattered Clouds
8:35 PM 63.0 °F 53.1 °F 70% 29.93 in 10.0 mi NNW 10.4 mph - N/A   Clear
8:55 PM 62.4 °F 52.7 °F 70% 29.94 in 10.0 mi NNW 6.9 mph - N/A   Scattered Clouds
9:15 PM 63.0 °F 51.8 °F 67% 29.95 in 10.0 mi North 8.1 mph - N/A   Mostly Cloudy
9:35 PM 62.1 °F 51.4 °F 68% 29.96 in 10.0 mi NNW 6.9 mph - N/A   Scattered Clouds
9:55 PM 61.0 °F 51.8 °F 72% 29.97 in 10.0 mi NNW 5.8 mph - N/A   Mostly Cloudy
10:15 PM 61.0 °F 51.3 °F 70% 29.98 in 10.0 mi NNW 9.2 mph - N/A   Mostly Cloudy
10:35 PM 61.3 °F 50.7 °F 68% 29.99 in 10.0 mi NNW 5.8 mph - N/A   Overcast
10:55 PM 60.3 °F 50.0 °F 69% 29.99 in 10.0 mi North 9.2 mph - N/A   Mostly Cloudy
11:15 PM 60.3 °F 49.6 °F 68% 29.99 in 10.0 mi NNW 10.4 mph - N/A   Scattered Clouds
11:35 PM 59.5 °F 49.3 °F 69% 29.99 in 10.0 mi NNW 9.2 mph - N/A   Clear
11:55 PM 57.2 °F 49.5 °F 75% 30.00 in 10.0 mi NNW 8.1 mph - N/A   Clear